createdAt,value
2018-11-10T00:02:04.942Z,68.80
2018-11-10T00:04:33.040Z,68.83
2018-11-10T00:07:01.141Z,65.30
2018-11-10T00:09:29.236Z,68.20
2018-11-10T00:11:57.342Z,69.33
2018-11-10T00:14:25.440Z,59.73
2018-11-10T00:16:53.541Z,65.73
2018-11-10T00:19:21.634Z,64.50
2018-11-10T00:21:49.741Z,61.07
2018-11-10T00:24:17.826Z,66.80
2018-11-10T00:26:45.917Z,71.63
2018-11-10T00:29:14.003Z,71.43
2018-11-10T00:31:42.087Z,65.37
2018-11-10T00:34:10.348Z,61.10
2018-11-10T00:36:38.459Z,68.50
2018-11-10T00:39:08.262Z,65.83
2018-11-10T00:41:36.345Z,65.57
2018-11-10T00:44:04.517Z,68.13
2018-11-10T00:46:33.387Z,69.20
2018-11-10T00:49:01.860Z,72.40
2018-11-10T00:51:30.049Z,56.00
2018-11-10T00:53:58.261Z,66.23
2018-11-10T00:56:26.325Z,70.37
2018-11-10T00:58:54.416Z,68.87
2018-11-10T01:01:22.499Z,72.00
2018-11-10T01:03:50.624Z,70.63
2018-11-10T01:06:18.794Z,69.90
2018-11-10T01:08:47.086Z,72.87
2018-11-10T01:11:15.163Z,72.77
2018-11-10T01:13:43.257Z,71.57
2018-11-10T01:16:11.342Z,73.13
2018-11-10T01:18:39.425Z,75.03
2018-11-10T01:21:07.819Z,72.07
2018-11-10T01:23:35.941Z,68.93
2018-11-10T01:26:04.061Z,77.87
2018-11-10T01:28:32.161Z,75.73
2018-11-10T01:31:00.251Z,76.23
2018-11-10T01:33:28.348Z,79.47
2018-11-10T01:35:56.445Z,77.73
2018-11-10T01:38:24.538Z,77.10
2018-11-10T01:40:52.628Z,83.83
2018-11-10T01:43:20.738Z,78.47
2018-11-10T01:45:48.825Z,83.60
2018-11-10T01:48:16.918Z,84.77
2018-11-10T01:50:45.009Z,86.00
2018-11-10T01:53:13.101Z,82.73
2018-11-10T01:55:41.194Z,90.17
2018-11-10T01:58:09.283Z,86.20
2018-11-10T02:00:37.376Z,84.17
2018-11-10T02:03:05.473Z,80.10
2018-11-10T02:05:33.570Z,88.90
2018-11-10T02:08:01.664Z,93.93
2018-11-10T02:10:29.772Z,97.50
2018-11-10T02:12:57.870Z,87.10
2018-11-10T02:15:25.966Z,89.37
2018-11-10T02:17:54.051Z,82.00
2018-11-10T02:20:22.154Z,98.60
2018-11-10T02:22:50.249Z,90.50
2018-11-10T02:25:18.359Z,53.80
2018-11-10T02:27:46.458Z,97.30
2018-11-10T02:30:14.552Z,97.77
2018-11-10T02:32:42.867Z,105.70
2018-11-10T02:35:11.323Z,95.03
2018-11-10T02:37:40.041Z,94.20
2018-11-10T02:40:09.856Z,99.30
2018-11-10T02:42:37.945Z,102.33
2018-11-10T02:45:07.443Z,107.80
2018-11-10T02:47:35.555Z,101.20
2018-11-10T02:50:03.650Z,105.20
2018-11-10T02:52:31.780Z,110.53
2018-11-10T02:54:59.829Z,105.87
2018-11-10T02:57:27.930Z,109.07
2018-11-10T02:59:56.010Z,107.90
2018-11-10T03:02:24.099Z,103.00
2018-11-10T03:04:52.181Z,109.33
2018-11-10T03:07:20.282Z,109.07
2018-11-10T03:09:48.366Z,104.20
2018-11-10T03:12:16.460Z,115.30
2018-11-10T03:14:44.695Z,111.07
2018-11-10T03:17:12.810Z,110.07
2018-11-10T03:19:41.061Z,117.47
2018-11-10T03:22:09.146Z,113.07
2018-11-10T03:24:37.229Z,108.57
2018-11-10T03:27:05.595Z,108.30
2018-11-10T03:29:33.694Z,110.17
2018-11-10T03:32:02.004Z,106.87
2018-11-10T03:34:30.083Z,114.83
2018-11-10T03:36:58.189Z,119.23
2018-11-10T03:39:26.271Z,116.20
2018-11-10T03:41:54.359Z,107.23
2018-11-10T03:44:22.455Z,115.17
2018-11-10T03:46:50.544Z,112.07
2018-11-10T03:49:18.634Z,107.50
2018-11-10T03:51:46.715Z,108.53
2018-11-10T03:54:14.817Z,110.57
2018-11-10T03:56:42.904Z,115.43
2018-11-10T03:59:10.994Z,107.43
2018-11-10T04:01:39.095Z,95.17
2018-11-10T04:04:07.207Z,99.10
2018-11-10T04:06:35.255Z,97.63
2018-11-10T04:09:03.476Z,94.87
2018-11-10T04:11:31.563Z,104.30
2018-11-10T04:13:59.656Z,100.17
2018-11-10T04:16:27.738Z,95.47
2018-11-10T04:18:55.822Z,96.03
2018-11-10T04:21:23.904Z,75.67
2018-11-10T04:23:51.989Z,95.30
2018-11-10T04:26:20.074Z,84.37
2018-11-10T04:28:48.168Z,87.93
2018-11-10T04:31:16.246Z,84.60
2018-11-10T04:33:44.341Z,86.60
2018-11-10T04:36:12.668Z,84.73
2018-11-10T04:38:40.754Z,84.07
2018-11-10T04:41:08.835Z,81.53
2018-11-10T04:43:36.927Z,77.77
2018-11-10T04:46:05.002Z,73.50
2018-11-10T04:48:33.097Z,74.70
2018-11-10T04:51:01.173Z,76.73
2018-11-10T04:53:29.245Z,76.90
2018-11-10T04:55:57.334Z,77.87
2018-11-10T04:58:25.409Z,77.97
2018-11-10T05:00:53.507Z,76.53
2018-11-10T05:03:21.586Z,75.97
2018-11-10T05:05:49.668Z,74.73
2018-11-10T05:10:45.836Z,66.13
2018-11-10T05:13:13.916Z,68.87
2018-11-10T05:15:42.106Z,66.47
2018-11-10T05:18:10.125Z,69.87
2018-11-10T05:20:38.213Z,72.43
2018-11-10T05:23:06.337Z,55.63
2018-11-10T05:25:34.425Z,68.13
2018-11-10T05:28:02.510Z,67.93
2018-11-10T05:30:30.593Z,68.23
2018-11-10T05:32:58.674Z,60.60
2018-11-10T05:35:26.781Z,75.73
2018-11-10T05:37:54.853Z,73.23
2018-11-10T05:40:22.936Z,66.87
2018-11-10T05:42:51.010Z,70.57
2018-11-10T05:45:19.115Z,70.67
2018-11-10T05:47:47.205Z,67.63
2018-11-10T05:50:15.285Z,67.70
2018-11-10T05:52:43.368Z,69.03
2018-11-10T05:55:11.537Z,67.13
2018-11-10T05:57:40.161Z,64.50
2018-11-10T06:00:10.475Z,56.43
2018-11-10T06:02:38.654Z,76.23
2018-11-10T06:05:06.753Z,74.67
2018-11-10T06:07:34.836Z,78.97
2018-11-10T06:10:02.978Z,67.80
2018-11-10T06:12:31.026Z,68.10
2018-11-10T06:14:59.114Z,73.97
2018-11-10T06:17:27.347Z,71.07
2018-11-10T06:19:55.287Z,75.40
2018-11-10T06:22:23.381Z,74.37
2018-11-10T06:24:51.459Z,75.17
2018-11-10T06:27:19.557Z,76.37
2018-11-10T06:29:47.639Z,73.20
2018-11-10T06:32:15.725Z,80.70
2018-11-10T06:34:43.816Z,75.87
2018-11-10T06:37:11.903Z,71.33
2018-11-10T06:39:39.995Z,67.07
2018-11-10T06:42:12.009Z,72.00
2018-11-10T06:44:41.809Z,70.13
2018-11-10T06:47:11.006Z,74.30
2018-11-10T06:49:43.288Z,70.57
2018-11-10T06:52:16.056Z,84.03
2018-11-10T06:54:45.603Z,79.30
2018-11-10T06:57:16.863Z,79.40
2018-11-10T06:59:43.748Z,78.70
2018-11-10T07:02:12.581Z,74.00
2018-11-10T07:04:41.365Z,82.70
2018-11-10T07:07:10.065Z,129.37
2018-11-10T07:09:38.728Z,85.10
2018-11-10T07:12:07.194Z,85.50
2018-11-10T07:14:36.209Z,78.67
2018-11-10T07:17:04.843Z,75.60
2018-11-10T07:19:33.418Z,66.27
2018-11-10T07:22:02.196Z,76.90
2018-11-10T07:24:30.896Z,77.57
2018-11-10T07:26:59.333Z,77.60
2018-11-10T07:29:27.966Z,76.90
2018-11-10T07:31:56.703Z,73.67
2018-11-10T07:34:25.713Z,82.90
2018-11-10T07:36:54.418Z,66.50
2018-11-10T07:39:22.456Z,65.87
2018-11-10T07:41:50.539Z,68.97
2018-11-10T07:44:19.122Z,73.60
2018-11-10T07:46:47.784Z,74.73
2018-11-10T07:49:16.544Z,68.67
2018-11-10T07:51:44.993Z,66.33
2018-11-10T07:54:13.610Z,77.33
2018-11-10T07:56:42.035Z,71.97
2018-11-10T07:59:10.743Z,70.80
2018-11-10T08:01:39.534Z,68.70
2018-11-10T08:04:08.352Z,71.13
2018-11-10T08:06:37.471Z,66.23
2018-11-10T08:09:08.384Z,71.77
2018-11-10T08:11:37.267Z,68.57
2018-11-10T08:14:05.974Z,64.47
2018-11-10T08:16:34.672Z,70.03
2018-11-10T08:19:03.307Z,66.37
2018-11-10T08:21:31.726Z,56.50
2018-11-10T08:24:00.456Z,62.83
2018-11-10T08:26:29.204Z,69.97
2018-11-10T08:28:57.910Z,67.87
2018-11-10T08:31:26.463Z,69.00
2018-11-10T08:33:55.059Z,68.03
2018-11-10T08:36:23.761Z,69.20
2018-11-10T08:38:52.511Z,61.50
2018-11-10T08:41:21.415Z,79.00
2018-11-10T08:43:50.176Z,60.97
2018-11-10T08:46:19.006Z,75.30
2018-11-10T08:48:47.800Z,61.50
2018-11-10T08:51:16.609Z,65.60
2018-11-10T08:53:45.400Z,57.10
2018-11-10T08:56:14.277Z,64.53
2018-11-10T08:58:42.338Z,57.60
2018-11-10T09:01:10.477Z,62.37
2018-11-10T09:03:38.709Z,64.67
2018-11-10T09:06:06.916Z,50.93
2018-11-10T09:08:34.923Z,59.87
2018-11-10T09:11:03.052Z,61.73
2018-11-10T09:13:31.454Z,54.53
2018-11-10T09:15:59.717Z,46.80
2018-11-10T09:18:27.888Z,54.93
2018-11-10T09:20:55.961Z,55.73
2018-11-10T09:23:24.063Z,56.57
2018-11-10T09:25:52.169Z,57.87
2018-11-10T09:28:20.279Z,52.83
2018-11-10T09:30:48.462Z,62.73
2018-11-10T09:33:16.837Z,58.07
2018-11-10T09:35:45.011Z,54.77
2018-11-10T09:38:13.102Z,45.47
2018-11-10T09:40:41.288Z,50.33
2018-11-10T09:43:09.463Z,40.73
2018-11-10T09:45:37.799Z,54.80
2018-11-10T09:48:05.972Z,51.13
2018-11-10T09:50:34.134Z,48.93
2018-11-10T09:53:02.213Z,54.50
2018-11-10T09:55:31.020Z,25.53
2018-11-10T09:57:59.765Z,53.63
2018-11-10T10:00:28.463Z,50.27
2018-11-10T10:02:57.163Z,48.13
2018-11-10T10:05:25.996Z,47.13
2018-11-10T10:07:54.489Z,50.93
2018-11-10T10:10:22.985Z,46.27
2018-11-10T10:12:51.519Z,42.70
2018-11-10T10:15:20.181Z,43.47
2018-11-10T10:17:49.282Z,45.53
2018-11-10T10:20:19.388Z,45.50
2018-11-10T10:22:48.752Z,45.20
2018-11-10T10:25:17.890Z,42.37
2018-11-10T10:27:47.512Z,44.27
2018-11-10T10:30:25.156Z,41.33
2018-11-10T10:32:53.942Z,37.73
2018-11-10T10:35:23.181Z,40.07
2018-11-10T10:37:52.360Z,33.20
2018-11-10T10:40:21.230Z,35.40
2018-11-10T10:42:50.345Z,32.17
2018-11-10T10:45:23.484Z,37.63
2018-11-10T10:47:52.490Z,37.00
2018-11-10T10:50:22.158Z,22.03
2018-11-10T10:52:50.931Z,37.27
2018-11-10T10:55:20.132Z,36.67
2018-11-10T10:57:49.796Z,34.63
2018-11-10T11:00:23.562Z,36.40
2018-11-10T11:02:56.377Z,36.60
2018-11-10T11:05:30.594Z,34.73
2018-11-10T11:07:59.433Z,32.60
2018-11-10T11:10:28.266Z,32.13
2018-11-10T11:12:57.049Z,31.20
2018-11-10T11:15:25.718Z,23.90
2018-11-10T11:17:54.247Z,38.63
2018-11-10T11:20:23.868Z,36.87
2018-11-10T11:22:52.554Z,38.37
2018-11-10T11:25:21.229Z,30.87
2018-11-10T11:27:49.808Z,43.33
2018-11-10T11:30:18.405Z,33.70
2018-11-10T11:32:47.020Z,35.60
2018-11-10T11:35:15.922Z,37.50
2018-11-10T11:37:44.561Z,29.60
2018-11-10T11:40:14.749Z,28.60
2018-11-10T11:42:43.893Z,31.33
2018-11-10T11:45:13.282Z,29.83
2018-11-10T11:47:42.611Z,29.97
2018-11-10T11:50:15.319Z,33.27
2018-11-10T11:52:45.422Z,35.50
2018-11-10T11:55:14.424Z,31.57
2018-11-10T11:57:42.938Z,31.17
2018-11-10T12:00:13.424Z,30.67
2018-11-10T12:02:42.806Z,30.43
2018-11-10T12:05:12.624Z,41.17
2018-11-10T12:07:40.682Z,30.10
2018-11-10T12:10:10.119Z,30.33
2018-11-10T12:12:38.204Z,26.90
2018-11-10T12:15:06.883Z,29.30
2018-11-10T12:17:35.039Z,31.50
2018-11-10T12:20:03.149Z,27.37
2018-11-10T12:22:31.237Z,36.07
2018-11-10T12:24:59.522Z,32.17
2018-11-10T12:27:27.621Z,29.50
2018-11-10T12:29:56.129Z,26.27
2018-11-10T12:32:24.915Z,29.77
2018-11-10T12:34:54.269Z,27.90
2018-11-10T12:37:23.064Z,29.27
2018-11-10T12:39:52.337Z,27.23
2018-11-10T12:42:21.040Z,29.10
2018-11-10T12:44:49.717Z,25.97
2018-11-10T12:47:18.583Z,33.77
2018-11-10T12:49:47.118Z,27.83
2018-11-10T12:52:16.054Z,24.33
2018-11-10T12:54:45.144Z,30.73
2018-11-10T12:57:13.927Z,36.17
2018-11-10T12:59:42.949Z,28.40
2018-11-10T13:02:11.865Z,31.53
2018-11-10T13:04:40.653Z,27.97
2018-11-10T13:07:09.482Z,28.47
2018-11-10T13:09:38.210Z,30.90
2018-11-10T13:12:06.874Z,26.67
2018-11-10T13:14:35.331Z,22.10
2018-11-10T13:17:04.296Z,23.40
2018-11-10T13:19:32.825Z,28.33
2018-11-10T13:22:01.590Z,25.00
2018-11-10T13:24:30.307Z,31.20
2018-11-10T13:26:59.799Z,29.30
2018-11-10T13:29:28.891Z,29.73
2018-11-10T13:31:57.681Z,29.80
2018-11-10T13:34:25.685Z,30.60
2018-11-10T13:36:53.809Z,28.80
2018-11-10T13:39:21.965Z,29.80
2018-11-10T13:41:50.120Z,29.77
2018-11-10T13:44:18.378Z,31.03
2018-11-10T13:46:46.493Z,29.00
2018-11-10T13:49:14.674Z,28.33
2018-11-10T13:51:43.144Z,27.27
2018-11-10T13:54:11.023Z,25.47
2018-11-10T13:56:39.189Z,26.30
2018-11-10T13:59:10.117Z,25.23
2018-11-10T14:01:38.139Z,26.67
2018-11-10T14:04:06.397Z,26.10
2018-11-10T14:06:34.482Z,33.43
2018-11-10T14:09:02.593Z,28.93
2018-11-10T14:11:30.679Z,29.63
2018-11-10T14:16:51.737Z,27.63
2018-11-10T14:19:19.938Z,26.93
2018-11-10T14:21:48.075Z,29.83
2018-11-10T14:24:16.258Z,28.10
2018-11-10T14:26:44.420Z,30.77
2018-11-10T14:29:12.527Z,28.20
2018-11-10T14:31:40.686Z,32.33
2018-11-10T14:34:08.856Z,36.47
2018-11-10T14:36:36.953Z,31.77
2018-11-10T14:39:07.634Z,31.90
2018-11-10T14:41:35.845Z,26.90
2018-11-10T14:44:04.334Z,26.47
2018-11-10T14:46:32.396Z,25.10
2018-11-10T14:49:00.626Z,30.20
2018-11-10T14:51:28.738Z,33.87
2018-11-10T14:53:56.928Z,33.63
2018-11-10T14:56:25.111Z,33.07
2018-11-10T14:58:53.266Z,35.40
2018-11-10T15:01:21.650Z,31.33
2018-11-10T15:03:49.821Z,33.70
2018-11-10T15:06:17.999Z,33.53
2018-11-10T15:08:46.163Z,35.73
2018-11-10T15:11:14.361Z,38.47
2018-11-10T15:13:42.501Z,48.67
2018-11-10T15:16:10.610Z,41.77
2018-11-10T15:18:38.765Z,41.47
2018-11-10T15:21:06.981Z,36.17
2018-11-10T15:23:35.034Z,36.43
2018-11-10T15:26:03.189Z,36.43
2018-11-10T15:28:31.347Z,32.33
2018-11-10T15:30:59.444Z,35.90
2018-11-10T15:33:27.548Z,35.33
2018-11-10T15:35:55.673Z,35.20
2018-11-10T15:38:23.751Z,35.97
2018-11-10T15:40:51.917Z,47.93
2018-11-10T15:43:20.086Z,45.37
2018-11-10T15:45:48.173Z,38.17
2018-11-10T15:48:16.339Z,50.67
2018-11-10T15:50:44.520Z,36.73
2018-11-10T15:53:13.166Z,44.83
2018-11-10T15:55:41.227Z,39.47
2018-11-10T15:58:09.299Z,39.07
2018-11-10T16:00:37.386Z,52.43
2018-11-10T16:03:05.859Z,39.47
2018-11-10T16:05:33.914Z,42.80
2018-11-10T16:08:02.255Z,57.10
2018-11-10T16:10:30.459Z,73.97
2018-11-10T16:12:58.789Z,45.93
2018-11-10T16:15:26.944Z,42.60
2018-11-10T16:17:55.490Z,42.83
2018-11-10T16:20:23.657Z,46.10
2018-11-10T16:22:52.189Z,46.40
2018-11-10T16:25:20.508Z,49.60
2018-11-10T16:27:49.089Z,53.37
2018-11-10T16:30:18.332Z,45.33
2018-11-10T16:32:46.736Z,47.53
2018-11-10T16:35:14.884Z,40.77
2018-11-10T16:37:43.165Z,37.37
2018-11-10T16:40:13.598Z,37.97
2018-11-10T16:42:43.079Z,40.37
2018-11-10T16:45:11.897Z,41.07
2018-11-10T16:47:39.988Z,39.77
2018-11-10T16:52:36.639Z,42.43
2018-11-10T16:55:05.286Z,36.07
2018-11-10T16:57:33.357Z,38.30
2018-11-10T17:00:01.564Z,34.20
2018-11-10T17:02:29.804Z,35.63
2018-11-10T17:04:57.846Z,32.80
2018-11-10T17:07:25.937Z,37.00
2018-11-10T17:09:54.129Z,70.10
2018-11-10T17:12:22.230Z,55.93
2018-11-10T17:14:50.465Z,55.13
2018-11-10T17:17:18.536Z,44.50
2018-11-10T17:19:46.822Z,41.93
2018-11-10T17:22:15.017Z,37.30
2018-11-10T17:24:42.981Z,49.77
2018-11-10T17:27:11.122Z,52.57
2018-11-10T17:29:39.179Z,56.53
2018-11-10T17:32:07.272Z,49.50
2018-11-10T17:34:35.355Z,37.97
2018-11-10T17:37:03.526Z,39.83
2018-11-10T17:39:31.665Z,39.20
2018-11-10T17:41:59.805Z,39.13
2018-11-10T17:44:27.854Z,35.57
2018-11-10T17:46:55.932Z,41.73
2018-11-10T17:49:24.015Z,41.97
2018-11-10T17:51:52.124Z,45.03
2018-11-10T17:54:20.389Z,53.30
2018-11-10T17:56:48.475Z,47.93
2018-11-10T17:59:16.555Z,46.03
2018-11-10T18:01:44.827Z,45.97
2018-11-10T18:04:12.719Z,46.60
2018-11-10T18:06:40.899Z,38.47
2018-11-10T18:09:10.609Z,40.90
2018-11-10T18:11:38.671Z,32.57
2018-11-10T18:14:06.914Z,36.60
2018-11-10T18:16:34.988Z,35.27
2018-11-10T18:19:03.208Z,34.50
2018-11-10T18:21:31.269Z,33.00
2018-11-10T18:23:59.370Z,31.43
2018-11-10T18:26:27.452Z,30.63
2018-11-10T18:28:55.541Z,35.13
2018-11-10T18:31:23.642Z,31.50
2018-11-10T18:33:51.730Z,32.10
2018-11-10T18:36:19.805Z,36.83
2018-11-10T18:38:47.890Z,37.20
2018-11-10T18:41:15.969Z,36.30
2018-11-10T18:43:44.061Z,35.20
2018-11-10T18:46:12.138Z,33.80
2018-11-10T18:48:40.233Z,41.47
2018-11-10T18:51:08.321Z,36.17
2018-11-10T18:53:36.405Z,38.47
2018-11-10T18:56:04.493Z,37.63
2018-11-10T18:58:32.569Z,35.07
2018-11-10T19:01:00.650Z,34.43
2018-11-10T19:03:29.665Z,33.23
2018-11-10T19:05:57.746Z,33.83
2018-11-10T19:08:25.822Z,37.13
2018-11-10T19:10:53.918Z,33.43
2018-11-10T19:13:21.990Z,35.03
2018-11-10T19:15:50.077Z,32.10
2018-11-10T19:18:18.177Z,32.47
2018-11-10T19:20:46.257Z,35.83
2018-11-10T19:23:14.342Z,32.20
2018-11-10T19:25:42.430Z,35.63
2018-11-10T19:28:10.523Z,32.00
2018-11-10T19:30:38.635Z,39.50
2018-11-10T19:33:06.746Z,34.83
2018-11-10T19:35:34.843Z,38.00
2018-11-10T19:38:02.930Z,30.40
2018-11-10T19:40:31.035Z,37.23
2018-11-10T19:42:59.120Z,33.87
2018-11-10T19:45:27.216Z,35.97
2018-11-10T19:47:55.297Z,39.00
2018-11-10T19:50:23.585Z,40.70
2018-11-10T19:52:51.532Z,36.57
2018-11-10T19:55:19.632Z,37.63
2018-11-10T19:57:47.709Z,32.37
2018-11-10T20:00:18.347Z,34.87
2018-11-10T20:02:46.601Z,32.17
2018-11-10T20:05:14.778Z,35.00
2018-11-10T20:07:43.011Z,33.97
2018-11-10T20:10:11.949Z,35.80
2018-11-10T20:12:40.542Z,31.23
2018-11-10T20:15:10.179Z,50.23
2018-11-10T20:17:39.144Z,57.60
2018-11-10T20:20:08.037Z,50.87
2018-11-10T20:22:36.040Z,34.07
2018-11-10T20:25:04.690Z,42.00
2018-11-10T20:27:32.797Z,39.27
2018-11-10T20:30:00.873Z,41.87
2018-11-10T20:32:28.965Z,38.90
2018-11-10T20:34:57.049Z,40.40
2018-11-10T20:37:25.145Z,42.33
2018-11-10T20:39:53.230Z,52.43
2018-11-10T20:42:21.367Z,43.07
2018-11-10T20:44:49.487Z,38.40
2018-11-10T20:47:17.616Z,38.63
2018-11-10T20:49:45.705Z,34.97
2018-11-10T20:52:13.794Z,36.77
2018-11-10T20:54:41.879Z,41.30
2018-11-10T20:57:09.980Z,38.67
2018-11-10T20:59:38.075Z,51.93
2018-11-10T21:02:06.203Z,52.13
2018-11-10T21:04:34.317Z,46.23
2018-11-10T21:07:02.414Z,47.70
2018-11-10T21:09:30.498Z,46.63
2018-11-10T21:11:58.593Z,42.77
2018-11-10T21:14:26.681Z,42.07
2018-11-10T21:16:54.776Z,40.47
2018-11-10T21:19:22.949Z,36.90
2018-11-10T21:21:51.051Z,40.23
2018-11-10T21:24:19.130Z,37.97
2018-11-10T21:26:47.274Z,39.23
2018-11-10T21:29:15.397Z,41.80
2018-11-10T21:31:43.513Z,43.93
2018-11-10T21:34:11.658Z,41.83
2018-11-10T21:36:39.666Z,42.87
2018-11-10T21:39:09.643Z,44.57
2018-11-10T21:41:37.710Z,48.97
2018-11-10T21:44:05.978Z,42.37
2018-11-10T21:46:34.057Z,43.50
2018-11-10T21:49:02.158Z,43.10
2018-11-10T21:51:30.243Z,43.60
2018-11-10T21:53:58.685Z,42.43
2018-11-10T21:56:26.853Z,39.40
2018-11-10T21:58:54.875Z,39.37
2018-11-10T22:01:23.043Z,47.80
2018-11-10T22:03:51.198Z,43.00
2018-11-10T22:06:19.278Z,38.33
2018-11-10T22:08:47.391Z,49.87
2018-11-10T22:11:15.424Z,40.87
2018-11-10T22:13:43.507Z,36.27
2018-11-10T22:16:11.579Z,39.67
2018-11-10T22:18:39.782Z,41.10
2018-11-10T22:21:07.853Z,38.77
2018-11-10T22:23:35.960Z,36.20
2018-11-10T22:26:04.018Z,39.53
2018-11-10T22:28:32.166Z,38.40
2018-11-10T22:31:00.301Z,42.17
2018-11-10T22:33:28.332Z,39.57
2018-11-10T22:35:56.411Z,37.83
2018-11-10T22:38:24.502Z,42.27
2018-11-10T22:40:52.670Z,38.10
2018-11-10T22:43:20.657Z,38.03
2018-11-10T22:45:48.733Z,41.60
2018-11-10T22:48:16.834Z,35.13
2018-11-10T22:50:44.917Z,37.93
2018-11-10T22:53:12.993Z,38.03
2018-11-10T22:55:41.083Z,38.80
2018-11-10T22:58:09.166Z,33.63
2018-11-10T23:00:56.393Z,37.93
2018-11-10T23:03:24.532Z,40.30
2018-11-10T23:05:52.561Z,37.53
2018-11-10T23:08:20.649Z,38.37
2018-11-10T23:10:48.735Z,38.40
2018-11-10T23:13:16.813Z,41.90
2018-11-10T23:15:44.899Z,40.67
2018-11-10T23:18:12.983Z,37.37
2018-11-10T23:20:41.068Z,38.43
2018-11-10T23:23:09.252Z,43.30
2018-11-10T23:25:37.299Z,41.00
2018-11-10T23:28:05.487Z,41.40
2018-11-10T23:30:33.574Z,40.07
2018-11-10T23:33:01.649Z,39.20
2018-11-10T23:35:29.734Z,39.93
2018-11-10T23:37:57.847Z,44.33
2018-11-10T23:40:25.903Z,42.00
2018-11-10T23:42:53.973Z,34.40
2018-11-10T23:45:22.064Z,38.60
2018-11-10T23:47:50.142Z,40.07
2018-11-10T23:50:18.773Z,42.57
2018-11-10T23:52:46.996Z,42.80
2018-11-10T23:55:15.740Z,35.30
2018-11-10T23:57:43.827Z,37.97
